Time,TemperatureF,DewpointF,PressureIn,WindDirection,WindDirectionDegrees,WindSpeedMPH,WindSpeedGustMPH,Humidity,HourlyPrecipIn,Conditions,Clouds,dailyrainin,SoftwareType,DateUTC
2013-06-29 00:01:00,73.7,60.4,29.80,NE,55,0.0,0.0,63,0.00,,,0.00,VWS V13.01,2013-06-29 05:01:00,
2013-06-29 00:06:00,73.7,59.9,29.80,NE,56,0.0,0.0,62,0.00,,,0.00,VWS V13.01,2013-06-29 05:06:00,
2013-06-29 00:11:00,73.7,60.4,29.80,NE,55,0.0,0.0,63,0.00,,,0.00,VWS V13.01,2013-06-29 05:11:00,
2013-06-29 00:16:00,73.6,59.8,29.80,NE,55,0.0,0.0,62,0.00,,,0.00,VWS V13.01,2013-06-29 05:16:00,
2013-06-29 00:21:00,73.0,60.6,29.80,NE,56,0.0,0.0,65,0.00,,,0.00,VWS V13.01,2013-06-29 05:21:00,
2013-06-29 00:26:00,72.5,60.1,29.80,NE,55,0.0,0.0,65,0.00,,,0.00,VWS V13.01,2013-06-29 05:26:00,
2013-06-29 00:31:00,71.9,60.0,29.80,NE,55,0.0,0.0,66,0.00,,,0.00,VWS V13.01,2013-06-29 05:31:00,
2013-06-29 00:36:00,71.8,59.8,29.80,NE,55,0.0,0.0,66,0.00,,,0.00,VWS V13.01,2013-06-29 05:36:00,
2013-06-29 00:41:00,71.4,60.3,29.80,NE,56,0.0,0.0,68,0.00,,,0.00,VWS V13.01,2013-06-29 05:41:00,
2013-06-29 00:46:00,71.4,59.5,29.80,NE,55,0.0,0.0,66,0.00,,,0.00,VWS V13.01,2013-06-29 05:46:00,
2013-06-29 00:51:00,71.4,59.9,29.80,NE,55,0.0,0.0,67,0.00,,,0.00,VWS V13.01,2013-06-29 05:51:00,
2013-06-29 00:56:00,71.4,59.9,29.80,East,97,0.0,0.0,67,0.00,,,0.00,VWS V13.01,2013-06-29 05:56:00,
2013-06-29 01:01:00,71.4,59.9,29.80,East,100,0.0,0.0,67,0.00,,,0.00,VWS V13.01,2013-06-29 06:01:00,
2013-06-29 01:06:00,71.0,60.0,29.80,East,100,0.0,0.0,68,0.00,,,0.00,VWS V13.01,2013-06-29 06:06:00,
2013-06-29 01:11:00,71.0,60.0,29.80,East,100,0.0,0.0,68,0.00,,,0.00,VWS V13.01,2013-06-29 06:11:00,
2013-06-29 01:16:00,70.9,59.0,29.80,East,100,0.0,0.0,66,0.00,,,0.00,VWS V13.01,2013-06-29 06:16:00,
2013-06-29 01:21:00,70.9,58.5,29.80,East,100,0.0,0.0,65,0.00,,,0.00,VWS V13.01,2013-06-29 06:21:00,
2013-06-29 01:26:00,71.0,58.7,29.80,East,100,0.0,0.0,65,0.00,,,0.00,VWS V13.01,2013-06-29 06:26:00,
2013-06-29 01:31:00,71.0,60.4,29.80,ENE,78,0.0,0.0,69,0.00,,,0.00,VWS V13.01,2013-06-29 06:31:00,
2013-06-29 01:36:00,70.9,60.6,29.80,NNW,347,0.0,0.0,70,0.00,,,0.00,VWS V13.01,2013-06-29 06:36:00,
2013-06-29 01:41:00,70.5,60.7,29.80,NNW,345,0.0,0.0,71,0.00,,,0.00,VWS V13.01,2013-06-29 06:41:00,
2013-06-29 01:46:00,70.1,60.7,29.80,NNW,343,0.0,0.0,72,0.00,,,0.00,VWS V13.01,2013-06-29 06:46:00,
2013-06-29 01:51:00,69.8,60.4,29.80,NNW,345,0.0,0.0,72,0.00,,,0.00,VWS V13.01,2013-06-29 06:51:00,
2013-06-29 01:55:00,69.2,60.2,29.80,NNW,345,0.0,0.0,73,0.00,,,0.00,VWS V13.01,2013-06-29 06:55:00,
2013-06-29 02:00:00,68.9,60.3,29.80,North,356,0.0,0.0,74,0.00,,,0.00,VWS V13.01,2013-06-29 07:00:00,
2013-06-29 02:05:00,68.7,59.7,29.80,NNW,347,0.0,0.0,73,0.00,,,0.00,VWS V13.01,2013-06-29 07:05:00,
2013-06-29 02:10:00,68.7,60.1,29.80,North,353,0.0,0.0,74,0.00,,,0.00,VWS V13.01,2013-06-29 07:10:00,
2013-06-29 02:15:00,68.5,59.9,29.80,North,353,0.0,0.0,74,0.00,,,0.00,VWS V13.01,2013-06-29 07:15:00,
2013-06-29 02:20:00,68.2,60.3,29.80,North,353,0.0,0.0,76,0.00,,,0.00,VWS V13.01,2013-06-29 07:20:00,
2013-06-29 02:25:00,67.8,59.6,29.80,North,353,0.0,0.0,75,0.00,,,0.00,VWS V13.01,2013-06-29 07:25:00,
2013-06-29 02:30:00,67.4,59.6,29.80,North,353,0.0,0.0,76,0.00,,,0.00,VWS V13.01,2013-06-29 07:30:00,
2013-06-29 02:35:00,67.3,60.2,29.80,North,353,0.0,0.0,78,0.00,,,0.00,VWS V13.01,2013-06-29 07:35:00,
2013-06-29 02:40:00,67.3,60.2,29.80,North,353,0.0,0.0,78,0.00,,,0.00,VWS V13.01,2013-06-29 07:40:00,
2013-06-29 02:45:00,67.1,59.6,29.80,North,353,0.0,0.0,77,0.00,,,0.00,VWS V13.01,2013-06-29 07:45:00,
2013-06-29 02:50:00,66.7,59.3,29.80,North,353,0.0,0.0,77,0.00,,,0.00,VWS V13.01,2013-06-29 07:50:00,
2013-06-29 02:55:00,66.5,59.5,29.80,North,353,0.0,0.0,78,0.00,,,0.00,VWS V13.01,2013-06-29 07:55:00,
2013-06-29 03:00:00,66.4,59.7,29.80,North,353,0.0,0.0,79,0.00,,,0.00,VWS V13.01,2013-06-29 08:00:00,
2013-06-29 03:05:00,66.2,60.5,29.80,North,353,0.0,0.0,82,0.00,,,0.00,VWS V13.01,2013-06-29 08:05:00,
2013-06-29 03:10:00,66.2,61.5,29.80,North,353,0.0,0.0,85,0.00,,,0.00,VWS V13.01,2013-06-29 08:10:00,
2013-06-29 03:15:00,65.8,61.8,29.80,North,353,0.0,0.0,87,0.00,,,0.00,VWS V13.01,2013-06-29 08:15:00,
2013-06-29 03:20:00,65.8,61.8,29.80,North,353,0.0,0.0,87,0.00,,,0.00,VWS V13.01,2013-06-29 08:20:00,
2013-06-29 03:25:00,65.5,60.8,29.80,North,353,0.0,0.0,85,0.00,,,0.00,VWS V13.01,2013-06-29 08:25:00,
2013-06-29 03:30:00,65.5,60.5,29.80,North,353,0.0,0.0,84,0.00,,,0.00,VWS V13.01,2013-06-29 08:30:00,
2013-06-29 03:35:00,65.3,60.3,29.80,North,353,0.0,0.0,84,0.00,,,0.00,VWS V13.01,2013-06-29 08:35:00,
2013-06-29 03:40:00,65.1,59.8,29.80,North,353,0.0,0.0,83,0.00,,,0.00,VWS V13.01,2013-06-29 08:40:00,
2013-06-29 03:45:00,65.1,59.8,29.80,North,353,0.0,0.0,83,0.00,,,0.00,VWS V13.01,2013-06-29 08:45:00,
2013-06-29 03:50:00,64.9,59.6,29.80,North,353,0.0,0.0,83,0.00,,,0.00,VWS V13.01,2013-06-29 08:50:00,
2013-06-29 03:55:00,64.9,60.0,29.80,North,353,0.0,0.0,84,0.00,,,0.00,VWS V13.01,2013-06-29 08:55:00,
2013-06-29 04:00:00,64.7,59.8,29.80,North,353,0.0,0.0,84,0.00,,,0.00,VWS V13.01,2013-06-29 09:00:00,
2013-06-29 04:05:00,64.7,60.1,29.80,North,353,0.0,0.0,85,0.00,,,0.00,VWS V13.01,2013-06-29 09:05:00,
2013-06-29 04:10:00,64.6,60.0,29.80,North,353,0.0,0.0,85,0.00,,,0.00,VWS V13.01,2013-06-29 09:10:00,
2013-06-29 04:15:00,64.6,60.0,29.80,North,353,0.0,0.0,85,0.00,,,0.00,VWS V13.01,2013-06-29 09:15:00,
2013-06-29 04:20:00,64.4,59.8,29.80,North,353,0.0,0.0,85,0.00,,,0.00,VWS V13.01,2013-06-29 09:20:00,
2013-06-29 04:25:00,64.2,59.6,29.80,North,353,0.0,0.0,85,0.00,,,0.00,VWS V13.01,2013-06-29 09:25:00,
2013-06-29 04:30:00,64.2,59.6,29.80,North,353,0.0,0.0,85,0.00,,,0.00,VWS V13.01,2013-06-29 09:30:00,
2013-06-29 04:35:00,64.0,59.8,29.80,North,353,0.0,0.0,86,0.00,,,0.00,VWS V13.01,2013-06-29 09:35:00,
2013-06-29 04:40:00,64.0,59.8,29.80,North,353,0.0,0.0,86,0.00,,,0.00,VWS V13.01,2013-06-29 09:40:00,
2013-06-29 04:45:00,63.8,59.9,29.80,North,353,0.0,0.0,87,0.00,,,0.00,VWS V13.01,2013-06-29 09:45:00,
2013-06-29 04:50:00,63.7,60.0,29.80,North,353,0.0,0.0,88,0.00,,,0.00,VWS V13.01,2013-06-29 09:50:00,
2013-06-29 04:55:00,63.5,60.2,29.80,North,353,0.0,0.0,89,0.00,,,0.00,VWS V13.01,2013-06-29 09:55:00,
2013-06-29 05:00:00,63.5,60.2,29.80,North,353,0.0,0.0,89,0.00,,,0.00,VWS V13.01,2013-06-29 10:00:00,
2013-06-29 05:05:00,63.5,60.2,29.80,North,353,0.0,0.0,89,0.00,,,0.00,VWS V13.01,2013-06-29 10:05:00,
2013-06-29 05:10:00,63.3,60.0,29.80,North,353,0.0,0.0,89,0.00,,,0.00,VWS V13.01,2013-06-29 10:10:00,
2013-06-29 05:15:00,63.1,59.8,29.83,North,353,0.0,0.0,89,0.00,,,0.00,VWS V13.01,2013-06-29 10:15:00,
2013-06-29 05:20:00,63.1,60.5,29.83,North,353,0.0,0.0,91,0.00,,,0.00,VWS V13.01,2013-06-29 10:20:00,
2013-06-29 05:25:00,63.1,61.1,29.83,North,353,0.0,0.0,93,0.00,,,0.00,VWS V13.01,2013-06-29 10:25:00,
2013-06-29 05:30:00,62.9,61.2,29.80,North,353,0.0,0.0,94,0.00,,,0.00,VWS V13.01,2013-06-29 10:30:00,
2013-06-29 05:35:00,63.1,61.4,29.80,North,353,0.0,0.0,94,0.00,,,0.00,VWS V13.01,2013-06-29 10:35:00,
2013-06-29 05:40:00,63.1,61.4,29.80,North,353,0.0,0.0,94,0.00,,,0.00,VWS V13.01,2013-06-29 10:40:00,
2013-06-29 05:45:00,62.9,61.2,29.80,North,353,0.0,0.0,94,0.00,,,0.00,VWS V13.01,2013-06-29 10:45:00,
2013-06-29 05:50:00,62.9,61.5,29.80,North,353,0.0,0.0,95,0.00,,,0.00,VWS V13.01,2013-06-29 10:50:00,
2013-06-29 05:55:00,62.8,61.3,29.80,North,353,0.0,0.0,95,0.00,,,0.00,VWS V13.01,2013-06-29 10:55:00,
2013-06-29 06:00:00,62.6,61.1,29.80,North,353,0.0,0.0,95,0.00,,,0.00,VWS V13.01,2013-06-29 11:00:00,
2013-06-29 06:05:00,62.4,61.0,29.80,North,353,0.0,0.0,95,0.00,,,0.00,VWS V13.01,2013-06-29 11:05:00,
2013-06-29 06:10:00,62.4,61.2,29.80,North,353,0.0,0.0,96,0.00,,,0.00,VWS V13.01,2013-06-29 11:10:00,
2013-06-29 06:15:00,62.4,61.2,29.80,North,353,0.0,0.0,96,0.00,,,0.00,VWS V13.01,2013-06-29 11:15:00,
2013-06-29 06:20:00,62.4,61.2,29.80,North,353,0.0,0.0,96,0.00,,,0.00,VWS V13.01,2013-06-29 11:20:00,
2013-06-29 06:25:00,62.4,61.2,29.80,North,353,0.0,0.0,96,0.00,,,0.00,VWS V13.01,2013-06-29 11:25:00,
2013-06-29 06:30:00,62.4,61.2,29.80,North,353,0.0,0.0,96,0.00,,,0.00,VWS V13.01,2013-06-29 11:30:00,
2013-06-29 06:35:00,62.6,61.4,29.80,North,353,0.0,0.0,96,0.00,,,0.00,VWS V13.01,2013-06-29 11:35:00,
2013-06-29 06:40:00,62.8,61.6,29.80,North,353,0.0,0.0,96,0.00,,,0.00,VWS V13.01,2013-06-29 11:40:00,
2013-06-29 06:45:00,63.1,62.0,29.80,North,353,0.0,0.0,96,0.00,,,0.00,VWS V13.01,2013-06-29 11:45:00,
2013-06-29 06:50:00,63.3,62.1,29.80,North,353,0.0,0.0,96,0.00,,,0.00,VWS V13.01,2013-06-29 11:50:00,
2013-06-29 06:55:00,63.3,62.1,29.80,North,353,0.0,0.0,96,0.00,,,0.00,VWS V13.01,2013-06-29 11:55:00,
2013-06-29 07:00:00,63.5,62.3,29.80,North,353,0.0,0.0,96,0.00,,,0.00,VWS V13.01,2013-06-29 12:00:00,
2013-06-29 07:05:00,63.8,62.7,29.80,North,353,0.0,0.0,96,0.00,,,0.00,VWS V13.01,2013-06-29 12:05:00,
2013-06-29 07:10:00,64.2,63.0,29.80,North,353,0.0,0.0,96,0.00,,,0.00,VWS V13.01,2013-06-29 12:10:00,
2013-06-29 07:15:00,64.7,63.9,29.80,North,353,0.0,0.0,97,0.00,,,0.00,VWS V13.01,2013-06-29 12:15:00,
2013-06-29 07:20:00,65.1,63.9,29.80,ESE,111,0.0,0.0,96,0.00,,,0.00,VWS V13.01,2013-06-29 12:20:00,
2013-06-29 07:25:00,65.6,64.5,29.80,ESE,111,0.0,0.0,96,0.00,,,0.00,VWS V13.01,2013-06-29 12:25:00,
2013-06-29 07:30:00,66.0,63.3,29.80,SSE,162,2.2,2.7,91,0.00,,,0.00,VWS V13.01,2013-06-29 12:30:00,
2013-06-29 07:35:00,66.5,61.9,29.80,SSE,162,2.2,3.1,85,0.00,,,0.00,VWS V13.01,2013-06-29 12:35:00,
2013-06-29 07:40:00,67.3,60.5,29.80,South,182,2.7,3.6,79,0.00,,,0.00,VWS V13.01,2013-06-29 12:40:00,
2013-06-29 07:45:00,67.8,59.6,29.80,South,172,2.2,2.2,75,0.00,,,0.00,VWS V13.01,2013-06-29 12:45:00,
2013-06-29 07:50:00,68.5,60.3,29.80,South,172,0.0,0.0,75,0.00,,,0.00,VWS V13.01,2013-06-29 12:50:00,
2013-06-29 07:55:00,69.1,60.0,29.80,SSE,150,2.2,2.7,73,0.00,,,0.00,VWS V13.01,2013-06-29 12:55:00,
2013-06-29 08:00:00,69.6,59.8,29.80,SSE,147,0.0,2.2,71,0.00,,,0.00,VWS V13.01,2013-06-29 13:00:00,
2013-06-29 08:05:00,70.1,59.9,29.80,SSE,147,2.7,2.7,70,0.00,,,0.00,VWS V13.01,2013-06-29 13:05:00,
2013-06-29 08:10:00,70.5,59.0,29.80,SSE,147,0.0,3.1,67,0.00,,,0.00,VWS V13.01,2013-06-29 13:10:00,
2013-06-29 08:15:00,71.0,59.1,29.80,South,171,0.0,2.2,66,0.00,,,0.00,VWS V13.01,2013-06-29 13:15:00,
2013-06-29 08:20:00,71.4,57.7,29.80,South,175,2.7,3.6,62,0.00,,,0.00,VWS V13.01,2013-06-29 13:20:00,
2013-06-29 08:25:00,71.9,58.7,29.80,South,176,2.2,2.2,63,0.00,,,0.00,VWS V13.01,2013-06-29 13:25:00,
2013-06-29 08:30:00,72.3,59.0,29.80,SSE,162,2.7,2.7,63,0.00,,,0.00,VWS V13.01,2013-06-29 13:30:00,
2013-06-29 08:35:00,72.8,59.5,29.80,South,171,0.0,0.0,63,0.00,,,0.00,VWS V13.01,2013-06-29 13:35:00,
2013-06-29 08:40:00,73.4,59.1,29.80,South,170,2.7,2.7,61,0.00,,,0.00,VWS V13.01,2013-06-29 13:40:00,
2013-06-29 08:45:00,73.7,58.1,29.80,South,174,4.0,4.0,58,0.00,,,0.00,VWS V13.01,2013-06-29 13:45:00,
2013-06-29 08:50:00,74.3,59.0,29.80,SW,235,4.0,4.0,59,0.00,,,0.00,VWS V13.01,2013-06-29 13:50:00,
2013-06-29 08:55:00,74.5,59.2,29.80,WSW,256,3.1,3.6,59,0.00,,,0.00,VWS V13.01,2013-06-29 13:55:00,
2013-06-29 09:00:00,74.8,60.5,29.80,WSW,256,8.1,10.1,61,0.00,,,0.00,VWS V13.01,2013-06-29 14:00:00,
2013-06-29 09:05:00,75.9,56.5,29.80,NW,310,4.9,4.9,51,0.00,,,0.00,VWS V13.01,2013-06-29 14:05:00,
2013-06-29 09:10:00,77.0,56.9,29.80,WNW,282,5.4,6.3,50,0.00,,,0.00,VWS V13.01,2013-06-29 14:10:00,
2013-06-29 09:15:00,77.5,56.9,29.80,North,354,6.3,6.3,49,0.00,,,0.00,VWS V13.01,2013-06-29 14:15:00,
2013-06-29 09:20:00,77.9,57.8,29.80,NW,314,5.8,5.8,50,0.00,,,0.00,VWS V13.01,2013-06-29 14:20:00,
2013-06-29 09:25:00,78.1,57.4,29.80,WSW,239,5.4,5.4,49,0.00,,,0.00,VWS V13.01,2013-06-29 14:25:00,
2013-06-29 09:30:00,78.1,56.2,29.83,WNW,302,5.4,5.4,47,0.00,,,0.00,VWS V13.01,2013-06-29 14:30:00,
2013-06-29 09:35:00,78.4,57.7,29.83,NW,305,3.6,4.0,49,0.00,,,0.00,VWS V13.01,2013-06-29 14:35:00,
2013-06-29 09:40:00,78.6,55.5,29.83,WSW,255,6.3,8.1,45,0.00,,,0.00,VWS V13.01,2013-06-29 14:40:00,
2013-06-29 09:45:00,79.0,55.2,29.80,NW,308,5.4,8.7,44,0.00,,,0.00,VWS V13.01,2013-06-29 14:45:00,
2013-06-29 09:50:00,79.3,57.4,29.80,WSW,255,4.0,4.0,47,0.00,,,0.00,VWS V13.01,2013-06-29 14:50:00,
2013-06-29 09:55:00,79.9,55.4,29.80,NW,312,7.6,7.6,43,0.00,,,0.00,VWS V13.01,2013-06-29 14:55:00,
2013-06-29 10:00:00,80.0,56.2,29.80,WNW,283,3.1,4.9,44,0.00,,,0.00,VWS V13.01,2013-06-29 15:00:00,
2013-06-29 10:05:00,80.6,56.0,29.80,NW,313,4.0,4.0,43,0.00,,,0.00,VWS V13.01,2013-06-29 15:05:00,
2013-06-29 10:10:00,80.4,55.2,29.80,WNW,299,9.6,9.6,42,0.00,,,0.00,VWS V13.01,2013-06-29 15:10:00,
2013-06-29 10:15:00,80.6,56.0,29.80,West,271,3.1,4.9,43,0.00,,,0.00,VWS V13.01,2013-06-29 15:15:00,
2013-06-29 10:20:00,80.8,55.5,29.80,West,279,10.1,10.1,42,0.00,,,0.00,VWS V13.01,2013-06-29 15:20:00,
2013-06-29 10:25:00,80.8,54.9,29.80,WSW,258,6.7,8.7,41,0.00,,,0.00,VWS V13.01,2013-06-29 15:25:00,
2013-06-29 10:30:00,81.1,55.2,29.80,WNW,294,5.8,6.3,41,0.00,,,0.00,VWS V13.01,2013-06-29 15:30:00,
2013-06-29 10:35:00,81.8,55.9,29.80,WNW,291,3.6,4.9,41,0.00,,,0.00,VWS V13.01,2013-06-29 15:35:00,
2013-06-29 10:40:00,82.0,56.0,29.80,NW,305,4.0,4.0,41,0.00,,,0.00,VWS V13.01,2013-06-29 15:40:00,
2013-06-29 10:45:00,82.4,55.0,29.80,NW,305,5.8,8.1,39,0.00,,,0.00,VWS V13.01,2013-06-29 15:45:00,
2013-06-29 10:50:00,82.4,55.0,29.80,West,275,8.7,8.7,39,0.00,,,0.00,VWS V13.01,2013-06-29 15:50:00,
2013-06-29 10:55:00,82.6,55.1,29.80,WNW,295,5.4,5.8,39,0.00,,,0.00,VWS V13.01,2013-06-29 15:55:00,
2013-06-29 10:59:00,82.6,55.1,29.80,NNW,328,3.1,4.0,39,0.00,,,0.00,VWS V13.01,2013-06-29 15:59:00,
2013-06-29 11:04:00,82.7,55.3,29.80,West,263,7.6,7.6,39,0.00,,,0.00,VWS V13.01,2013-06-29 16:04:00,
2013-06-29 11:09:00,83.3,55.8,29.80,WSW,256,7.6,7.6,39,0.00,,,0.00,VWS V13.01,2013-06-29 16:09:00,
2013-06-29 11:14:00,82.6,55.1,29.80,NW,308,5.8,11.0,39,0.00,,,0.00,VWS V13.01,2013-06-29 16:14:00,
2013-06-29 11:19:00,83.3,55.8,29.80,NW,304,8.1,8.1,39,0.00,,,0.00,VWS V13.01,2013-06-29 16:19:00,
2013-06-29 11:24:00,83.3,55.8,29.80,West,270,8.1,8.1,39,0.00,,,0.00,VWS V13.01,2013-06-29 16:24:00,
2013-06-29 11:29:00,83.6,56.1,29.80,WNW,286,7.6,7.6,39,0.00,,,0.00,VWS V13.01,2013-06-29 16:29:00,
2013-06-29 11:34:00,83.8,56.2,29.80,WNW,288,8.1,8.7,39,0.00,,,0.00,VWS V13.01,2013-06-29 16:34:00,
2013-06-29 11:39:00,84.2,55.8,29.80,NW,311,10.1,10.1,38,0.00,,,0.00,VWS V13.01,2013-06-29 16:39:00,
2013-06-29 11:44:00,83.6,56.1,29.80,NW,316,6.3,6.3,39,0.00,,,0.00,VWS V13.01,2013-06-29 16:44:00,
2013-06-29 11:49:00,83.6,56.1,29.80,WNW,285,6.3,6.3,39,0.00,,,0.00,VWS V13.01,2013-06-29 16:49:00,
2013-06-29 11:54:00,83.6,56.1,29.80,WNW,288,6.3,6.3,39,0.00,,,0.00,VWS V13.01,2013-06-29 16:54:00,
2013-06-29 11:59:00,84.0,55.7,29.80,NW,309,3.6,3.6,38,0.00,,,0.00,VWS V13.01,2013-06-29 16:59:00,
2013-06-29 12:04:00,84.9,56.5,29.80,NNW,330,5.4,5.4,38,0.00,,,0.00,VWS V13.01,2013-06-29 17:04:00,
2013-06-29 12:09:00,85.1,56.7,29.80,NW,316,5.8,7.2,38,0.00,,,0.00,VWS V13.01,2013-06-29 17:09:00,
2013-06-29 12:14:00,85.1,56.7,29.80,NW,321,8.1,8.1,38,0.00,,,0.00,VWS V13.01,2013-06-29 17:14:00,
2013-06-29 12:19:00,85.1,56.7,29.80,NW,305,9.6,9.6,38,0.00,,,0.00,VWS V13.01,2013-06-29 17:19:00,
2013-06-29 12:24:00,85.1,56.7,29.80,WNW,296,8.1,8.1,38,0.00,,,0.00,VWS V13.01,2013-06-29 17:24:00,
2013-06-29 12:29:00,85.1,56.7,29.80,NW,305,5.4,5.4,38,0.00,,,0.00,VWS V13.01,2013-06-29 17:29:00,
2013-06-29 12:34:00,85.6,57.1,29.80,NW,305,5.8,5.8,38,0.00,,,0.00,VWS V13.01,2013-06-29 17:34:00,
2013-06-29 12:39:00,85.4,57.0,29.80,NW,304,11.0,11.0,38,0.00,,,0.00,VWS V13.01,2013-06-29 17:39:00,
2013-06-29 12:44:00,84.7,56.3,29.80,West,274,10.1,10.1,38,0.00,,,0.00,VWS V13.01,2013-06-29 17:44:00,
2013-06-29 12:49:00,85.1,56.7,29.80,WNW,297,5.4,5.4,38,0.00,,,0.00,VWS V13.01,2013-06-29 17:49:00,
2013-06-29 12:54:00,85.6,57.1,29.80,WNW,297,8.3,8.3,38,0.00,,,0.00,VWS V13.01,2013-06-29 17:54:00,
2013-06-29 12:59:00,86.5,57.9,29.78,NW,320,3.6,4.0,38,0.00,,,0.00,VWS V13.01,2013-06-29 17:59:00,
2013-06-29 13:04:00,86.5,57.9,29.78,SW,232,6.3,6.3,38,0.00,,,0.00,VWS V13.01,2013-06-29 18:04:00,
2013-06-29 13:09:00,85.8,55.0,29.78,WNW,302,8.1,8.1,35,0.00,,,0.00,VWS V13.01,2013-06-29 18:09:00,
2013-06-29 13:14:00,85.6,57.1,29.78,NNE,29,3.1,3.6,38,0.00,,,0.00,VWS V13.01,2013-06-29 18:14:00,
2013-06-29 13:19:00,86.7,55.8,29.78,WNW,298,3.6,6.3,35,0.00,,,0.00,VWS V13.01,2013-06-29 18:19:00,
2013-06-29 13:24:00,86.0,55.2,29.78,WSW,250,10.5,10.5,35,0.00,,,0.00,VWS V13.01,2013-06-29 18:24:00,
2013-06-29 13:29:00,86.0,57.4,29.78,NW,304,5.8,7.6,38,0.00,,,0.00,VWS V13.01,2013-06-29 18:29:00,
2013-06-29 13:34:00,86.5,57.9,29.78,WNW,295,3.1,3.1,38,0.00,,,0.00,VWS V13.01,2013-06-29 18:34:00,
2013-06-29 13:39:00,86.9,56.0,29.78,West,262,14.1,22.4,35,0.00,,,0.00,VWS V13.01,2013-06-29 18:39:00,
2013-06-29 13:44:00,86.5,55.7,29.78,NW,318,5.8,14.5,35,0.00,,,0.00,VWS V13.01,2013-06-29 18:44:00,
2013-06-29 13:49:00,86.2,55.3,29.78,West,280,6.3,6.3,35,0.00,,,0.00,VWS V13.01,2013-06-29 18:49:00,
2013-06-29 13:54:00,86.5,55.7,29.78,WNW,298,5.4,6.3,35,0.00,,,0.00,VWS V13.01,2013-06-29 18:54:00,
2013-06-29 13:59:00,87.1,58.4,29.78,North,360,5.4,5.4,38,0.00,,,0.00,VWS V13.01,2013-06-29 18:59:00,
2013-06-29 14:04:00,87.4,56.4,29.78,WNW,301,8.1,8.1,35,0.00,,,0.00,VWS V13.01,2013-06-29 19:04:00,
2013-06-29 14:09:00,86.5,55.7,29.78,NW,309,11.0,11.4,35,0.00,,,0.00,VWS V13.01,2013-06-29 19:09:00,
2013-06-29 14:14:00,86.3,57.8,29.78,SW,236,8.3,8.3,38,0.00,,,0.00,VWS V13.01,2013-06-29 19:14:00,
2013-06-29 14:19:00,86.7,55.8,29.78,NNW,339,3.1,3.1,35,0.00,,,0.00,VWS V13.01,2013-06-29 19:19:00,
2013-06-29 14:24:00,86.9,56.0,29.78,NW,320,5.4,5.4,35,0.00,,,0.00,VWS V13.01,2013-06-29 19:24:00,
2013-06-29 14:29:00,86.5,55.7,29.78,West,265,7.6,8.7,35,0.00,,,0.00,VWS V13.01,2013-06-29 19:29:00,
2013-06-29 14:34:00,86.7,58.1,29.78,NW,312,4.9,8.7,38,0.00,,,0.00,VWS V13.01,2013-06-29 19:34:00,
2013-06-29 14:39:00,86.5,55.7,29.78,NNW,348,7.6,8.3,35,0.00,,,0.00,VWS V13.01,2013-06-29 19:39:00,
2013-06-29 14:44:00,87.1,56.1,29.78,NW,315,5.8,5.8,35,0.00,,,0.00,VWS V13.01,2013-06-29 19:44:00,
2013-06-29 14:49:00,87.2,58.6,29.78,NW,316,3.1,5.8,38,0.00,,,0.00,VWS V13.01,2013-06-29 19:49:00,
2013-06-29 14:54:00,87.2,56.3,29.78,West,269,5.8,5.8,35,0.00,,,0.00,VWS V13.01,2013-06-29 19:54:00,
2013-06-29 14:59:00,86.7,55.8,29.78,WNW,292,6.3,9.2,35,0.00,,,0.00,VWS V13.01,2013-06-29 19:59:00,
2013-06-29 15:04:00,86.9,56.0,29.78,NW,306,8.3,8.3,35,0.00,,,0.00,VWS V13.01,2013-06-29 20:04:00,
2013-06-29 15:09:00,88.0,56.9,29.78,WNW,292,10.5,10.5,35,0.00,,,0.00,VWS V13.01,2013-06-29 20:09:00,
2013-06-29 15:14:00,87.1,56.1,29.78,WNW,288,5.8,8.1,35,0.00,,,0.00,VWS V13.01,2013-06-29 20:14:00,
2013-06-29 15:19:00,86.9,56.0,29.78,West,275,4.0,8.1,35,0.00,,,0.00,VWS V13.01,2013-06-29 20:19:00,
2013-06-29 15:24:00,87.1,56.1,29.78,WSW,254,6.3,9.6,35,0.00,,,0.00,VWS V13.01,2013-06-29 20:24:00,
2013-06-29 15:29:00,87.6,56.6,29.78,NE,50,5.8,5.8,35,0.00,,,0.00,VWS V13.01,2013-06-29 20:29:00,
2013-06-29 15:34:00,87.2,56.3,29.78,NW,317,4.0,4.0,35,0.00,,,0.00,VWS V13.01,2013-06-29 20:34:00,
2013-06-29 15:39:00,87.2,56.3,29.78,WNW,285,5.8,6.3,35,0.00,,,0.00,VWS V13.01,2013-06-29 20:39:00,
2013-06-29 15:44:00,88.0,58.5,29.78,West,260,3.1,6.3,37,0.00,,,0.00,VWS V13.01,2013-06-29 20:44:00,
2013-06-29 15:49:00,88.1,57.1,29.78,NW,315,6.3,6.3,35,0.00,,,0.00,VWS V13.01,2013-06-29 20:49:00,
2013-06-29 15:54:00,88.0,56.9,29.78,WSW,255,5.8,5.8,35,0.00,,,0.00,VWS V13.01,2013-06-29 20:54:00,
2013-06-29 15:59:00,87.8,56.8,29.75,WNW,293,3.1,3.1,35,0.00,,,0.00,VWS V13.01,2013-06-29 20:59:00,
2013-06-29 16:04:00,87.2,56.3,29.75,West,275,6.7,6.7,35,0.00,,,0.00,VWS V13.01,2013-06-29 21:04:00,
2013-06-29 16:09:00,86.7,55.8,29.75,NW,310,8.1,8.1,35,0.00,,,0.00,VWS V13.01,2013-06-29 21:09:00,
2013-06-29 16:14:00,86.5,55.7,29.75,NW,305,8.3,8.3,35,0.00,,,0.00,VWS V13.01,2013-06-29 21:14:00,
2013-06-29 16:19:00,87.1,56.1,29.75,WNW,301,7.6,7.6,35,0.00,,,0.00,VWS V13.01,2013-06-29 21:19:00,
2013-06-29 16:24:00,87.6,56.6,29.75,WNW,293,3.1,8.1,35,0.00,,,0.00,VWS V13.01,2013-06-29 21:24:00,
2013-06-29 16:29:00,87.8,56.8,29.75,WNW,293,6.3,6.3,35,0.00,,,0.00,VWS V13.01,2013-06-29 21:29:00,
2013-06-29 16:34:00,87.6,56.6,29.75,NW,319,3.6,6.3,35,0.00,,,0.00,VWS V13.01,2013-06-29 21:34:00,
2013-06-29 16:39:00,87.6,56.6,29.75,NW,304,5.4,8.7,35,0.00,,,0.00,VWS V13.01,2013-06-29 21:39:00,
2013-06-29 16:44:00,87.8,56.8,29.75,NW,322,5.4,5.4,35,0.00,,,0.00,VWS V13.01,2013-06-29 21:44:00,
2013-06-29 16:49:00,87.6,56.6,29.75,WNW,290,5.4,5.4,35,0.00,,,0.00,VWS V13.01,2013-06-29 21:49:00,
2013-06-29 16:54:00,87.6,56.6,29.75,WNW,299,8.7,10.5,35,0.00,,,0.00,VWS V13.01,2013-06-29 21:54:00,
2013-06-29 16:59:00,87.4,56.4,29.75,WSW,256,5.4,6.3,35,0.00,,,0.00,VWS V13.01,2013-06-29 21:59:00,
2013-06-29 17:04:00,87.4,56.4,29.75,West,262,8.3,8.3,35,0.00,,,0.00,VWS V13.01,2013-06-29 22:04:00,
2013-06-29 17:09:00,87.2,56.3,29.75,WSW,238,12.8,12.8,35,0.00,,,0.00,VWS V13.01,2013-06-29 22:09:00,
2013-06-29 17:14:00,87.1,56.1,29.75,WNW,293,8.1,8.3,35,0.00,,,0.00,VWS V13.01,2013-06-29 22:14:00,
2013-06-29 17:19:00,87.4,56.4,29.75,WSW,239,9.2,9.2,35,0.00,,,0.00,VWS V13.01,2013-06-29 22:19:00,
2013-06-29 17:24:00,87.1,56.1,29.75,WNW,297,3.6,5.8,35,0.00,,,0.00,VWS V13.01,2013-06-29 22:24:00,
2013-06-29 17:29:00,86.7,55.8,29.75,NNW,332,10.5,11.0,35,0.00,,,0.00,VWS V13.01,2013-06-29 22:29:00,
2013-06-29 17:34:00,87.2,56.3,29.75,West,277,5.4,6.3,35,0.00,,,0.00,VWS V13.01,2013-06-29 22:34:00,
2013-06-29 17:39:00,87.4,56.4,29.75,WNW,291,3.6,3.6,35,0.00,,,0.00,VWS V13.01,2013-06-29 22:39:00,
2013-06-29 17:44:00,87.4,56.4,29.75,NW,314,11.0,11.0,35,0.00,,,0.00,VWS V13.01,2013-06-29 22:44:00,
2013-06-29 17:49:00,87.2,56.3,29.75,WNW,303,5.4,6.3,35,0.00,,,0.00,VWS V13.01,2013-06-29 22:49:00,
2013-06-29 17:54:00,86.9,56.0,29.75,NW,317,5.8,10.5,35,0.00,,,0.00,VWS V13.01,2013-06-29 22:54:00,
2013-06-29 17:59:00,87.1,56.1,29.75,WNW,283,8.1,8.3,35,0.00,,,0.00,VWS V13.01,2013-06-29 22:59:00,
2013-06-29 18:04:00,86.2,55.3,29.75,West,281,8.1,8.3,35,0.00,,,0.00,VWS V13.01,2013-06-29 23:04:00,
2013-06-29 18:09:00,86.5,55.7,29.75,NW,322,3.1,3.1,35,0.00,,,0.00,VWS V13.01,2013-06-29 23:09:00,
2013-06-29 18:14:00,86.5,55.7,29.72,WSW,256,6.7,8.1,35,0.00,,,0.00,VWS V13.01,2013-06-29 23:14:00,
2013-06-29 18:19:00,86.5,55.7,29.72,WSW,252,6.3,6.3,35,0.00,,,0.00,VWS V13.01,2013-06-29 23:19:00,
2013-06-29 18:24:00,86.7,55.8,29.72,NW,308,6.3,6.3,35,0.00,,,0.00,VWS V13.01,2013-06-29 23:24:00,
2013-06-29 18:29:00,86.3,55.5,29.72,WSW,251,5.8,5.8,35,0.00,,,0.00,VWS V13.01,2013-06-29 23:29:00,
2013-06-29 18:34:00,85.6,55.6,29.72,WNW,300,5.8,6.3,36,0.00,,,0.00,VWS V13.01,2013-06-29 23:34:00,
2013-06-29 18:39:00,85.6,55.6,29.72,NW,311,3.6,8.1,36,0.00,,,0.00,VWS V13.01,2013-06-29 23:39:00,
2013-06-29 18:44:00,85.6,55.6,29.75,WSW,244,5.4,8.1,36,0.00,,,0.00,VWS V13.01,2013-06-29 23:44:00,
2013-06-29 18:49:00,85.6,55.6,29.75,WNW,295,8.7,8.7,36,0.00,,,0.00,VWS V13.01,2013-06-29 23:49:00,
2013-06-29 18:54:00,85.4,55.5,29.75,NW,307,5.4,8.7,36,0.00,,,0.00,VWS V13.01,2013-06-29 23:54:00,
2013-06-29 18:58:00,85.3,55.3,29.75,NW,305,8.7,8.7,36,0.00,,,0.00,VWS V13.01,2013-06-29 23:58:00,
2013-06-29 19:03:00,85.1,55.2,29.75,WNW,303,4.9,6.3,36,0.00,,,0.00,VWS V13.01,2013-06-30 00:03:00,
2013-06-29 19:08:00,85.1,55.2,29.75,West,261,3.6,3.6,36,0.00,,,0.00,VWS V13.01,2013-06-30 00:08:00,
2013-06-29 19:13:00,85.1,55.2,29.75,West,262,6.3,6.3,36,0.00,,,0.00,VWS V13.01,2013-06-30 00:13:00,
2013-06-29 19:18:00,84.9,56.5,29.75,NNW,327,4.9,4.9,38,0.00,,,0.00,VWS V13.01,2013-06-30 00:18:00,
2013-06-29 19:23:00,84.7,54.8,29.75,North,359,3.1,4.0,36,0.00,,,0.00,VWS V13.01,2013-06-30 00:23:00,
2013-06-29 19:28:00,84.4,54.5,29.75,WNW,297,4.0,4.0,36,0.00,,,0.00,VWS V13.01,2013-06-30 00:28:00,
2013-06-29 19:33:00,84.2,54.4,29.75,NW,309,5.8,5.8,36,0.00,,,0.00,VWS V13.01,2013-06-30 00:33:00,
2013-06-29 19:38:00,84.0,54.2,29.75,NW,309,5.8,5.8,36,0.00,,,0.00,VWS V13.01,2013-06-30 00:38:00,
2013-06-29 19:43:00,83.6,53.9,29.75,NNW,340,3.6,3.6,36,0.00,,,0.00,VWS V13.01,2013-06-30 00:43:00,
2013-06-29 19:48:00,83.5,53.7,29.75,WNW,297,4.0,6.3,36,0.00,,,0.00,VWS V13.01,2013-06-30 00:48:00,
2013-06-29 19:53:00,83.3,53.6,29.75,WNW,303,3.1,3.1,36,0.00,,,0.00,VWS V13.01,2013-06-30 00:53:00,
2013-06-29 19:58:00,82.9,53.2,29.75,NNW,332,3.1,3.6,36,0.00,,,0.00,VWS V13.01,2013-06-30 00:58:00,
2013-06-29 20:03:00,82.6,54.4,29.75,WNW,300,3.6,3.6,38,0.00,,,0.00,VWS V13.01,2013-06-30 01:03:00,
2013-06-29 20:08:00,82.0,54.6,29.75,WNW,293,0.0,2.2,39,0.00,,,0.00,VWS V13.01,2013-06-30 01:08:00,
2013-06-29 20:13:00,81.8,54.5,29.75,WNW,282,3.1,3.6,39,0.00,,,0.00,VWS V13.01,2013-06-30 01:13:00,
2013-06-29 20:18:00,81.5,54.2,29.75,WSW,258,2.2,3.1,39,0.00,,,0.00,VWS V13.01,2013-06-30 01:18:00,
2013-06-29 20:23:00,80.8,53.5,29.75,WNW,290,3.1,3.1,39,0.00,,,0.00,VWS V13.01,2013-06-30 01:23:00,
2013-06-29 20:28:00,80.4,53.2,29.75,WNW,293,2.7,2.7,39,0.00,,,0.00,VWS V13.01,2013-06-30 01:28:00,
2013-06-29 20:33:00,80.0,52.9,29.75,WNW,295,3.1,3.1,39,0.00,,,0.00,VWS V13.01,2013-06-30 01:33:00,
2013-06-29 20:38:00,79.7,52.6,29.75,WNW,296,2.7,2.7,39,0.00,,,0.00,VWS V13.01,2013-06-30 01:38:00,
2013-06-29 20:43:00,79.3,52.9,29.75,WNW,286,3.1,3.1,40,0.00,,,0.00,VWS V13.01,2013-06-30 01:43:00,
2013-06-29 20:48:00,79.0,52.6,29.75,West,277,2.2,2.7,40,0.00,,,0.00,VWS V13.01,2013-06-30 01:48:00,
2013-06-29 20:53:00,78.6,52.3,29.75,WNW,282,0.0,0.0,40,0.00,,,0.00,VWS V13.01,2013-06-30 01:53:00,
2013-06-29 20:58:00,78.2,52.0,29.75,WNW,283,0.0,0.0,40,0.00,,,0.00,VWS V13.01,2013-06-30 01:58:00,
2013-06-29 21:03:00,77.5,51.3,29.75,WNW,283,0.0,0.0,40,0.00,,,0.00,VWS V13.01,2013-06-30 02:03:00,
2013-06-29 21:08:00,77.0,51.5,29.75,WNW,283,0.0,0.0,41,0.00,,,0.00,VWS V13.01,2013-06-30 02:08:00,
2013-06-29 21:13:00,76.3,50.9,29.75,WNW,283,0.0,0.0,41,0.00,,,0.00,VWS V13.01,2013-06-30 02:13:00,
2013-06-29 21:18:00,75.7,51.0,29.75,WNW,283,0.0,0.0,42,0.00,,,0.00,VWS V13.01,2013-06-30 02:18:00,
2013-06-29 21:23:00,75.2,50.5,29.75,WNW,283,0.0,0.0,42,0.00,,,0.00,VWS V13.01,2013-06-30 02:23:00,
2013-06-29 21:28:00,74.6,50.7,29.75,WNW,283,0.0,0.0,43,0.00,,,0.00,VWS V13.01,2013-06-30 02:28:00,
2013-06-29 21:33:00,74.3,51.0,29.75,WNW,283,0.0,0.0,44,0.00,,,0.00,VWS V13.01,2013-06-30 02:33:00,
2013-06-29 21:34:00,74.3,51.0,29.75,WNW,283,0.0,0.0,44,0.00,,,0.00,VWS V13.01,2013-06-30 02:34:00,
2013-06-29 21:39:00,73.7,50.5,29.75,WNW,283,0.0,0.0,44,0.00,,,0.00,VWS V13.01,2013-06-30 02:39:00,
2013-06-29 21:44:00,73.4,50.8,29.75,WNW,283,0.0,0.0,45,0.00,,,0.00,VWS V13.01,2013-06-30 02:44:00,
2013-06-29 21:49:00,72.8,50.9,29.75,WNW,283,0.0,0.0,46,0.00,,,0.00,VWS V13.01,2013-06-30 02:49:00,
2013-06-29 21:54:00,72.3,51.0,29.75,WNW,283,0.0,0.0,47,0.00,,,0.00,VWS V13.01,2013-06-30 02:54:00,
2013-06-29 21:59:00,71.8,51.0,29.78,WNW,283,0.0,0.0,48,0.00,,,0.00,VWS V13.01,2013-06-30 02:59:00,
2013-06-29 22:04:00,71.4,52.3,29.78,WNW,283,0.0,0.0,51,0.00,,,0.00,VWS V13.01,2013-06-30 03:04:00,
2013-06-29 22:09:00,71.2,52.7,29.78,WNW,283,0.0,0.0,52,0.00,,,0.00,VWS V13.01,2013-06-30 03:09:00,
2013-06-29 22:14:00,70.7,52.2,29.78,WNW,283,0.0,0.0,52,0.00,,,0.00,VWS V13.01,2013-06-30 03:14:00,
2013-06-29 22:19:00,70.1,52.2,29.78,WNW,283,0.0,0.0,53,0.00,,,0.00,VWS V13.01,2013-06-30 03:19:00,
2013-06-29 22:24:00,69.8,52.9,29.78,WNW,283,0.0,0.0,55,0.00,,,0.00,VWS V13.01,2013-06-30 03:24:00,
2013-06-29 22:28:00,69.4,52.6,29.78,WNW,283,0.0,0.0,55,0.00,,,0.00,VWS V13.01,2013-06-30 03:28:00,
2013-06-29 22:33:00,68.9,52.6,29.78,WNW,283,0.0,0.0,56,0.00,,,0.00,VWS V13.01,2013-06-30 03:33:00,
2013-06-29 22:38:00,68.5,52.7,29.78,WNW,283,0.0,0.0,57,0.00,,,0.00,VWS V13.01,2013-06-30 03:38:00,
2013-06-29 22:43:00,68.3,52.5,29.78,WNW,283,0.0,0.0,57,0.00,,,0.00,VWS V13.01,2013-06-30 03:43:00,
2013-06-29 22:48:00,68.0,52.2,29.78,WNW,283,0.0,0.0,57,0.00,,,0.00,VWS V13.01,2013-06-30 03:48:00,
2013-06-29 22:53:00,67.8,53.0,29.78,WNW,283,0.0,0.0,59,0.00,,,0.00,VWS V13.01,2013-06-30 03:53:00,
2013-06-29 22:58:00,67.6,54.2,29.78,WNW,296,0.0,0.0,62,0.00,,,0.00,VWS V13.01,2013-06-30 03:58:00,
2013-06-29 23:01:00,67.3,53.8,29.78,WNW,296,0.0,0.0,62,0.00,,,0.00,VWS V13.01,2013-06-30 04:01:00,
2013-06-29 23:06:00,66.9,53.9,29.78,WNW,296,0.0,0.0,63,0.00,,,0.00,VWS V13.01,2013-06-30 04:06:00,
2013-06-29 23:11:00,66.5,53.6,29.78,NNW,337,0.0,0.0,63,0.00,,,0.00,VWS V13.01,2013-06-30 04:11:00,
2013-06-29 23:16:00,66.4,53.0,29.78,NNW,337,0.0,0.0,62,0.00,,,0.00,VWS V13.01,2013-06-30 04:16:00,
2013-06-29 23:21:00,66.4,53.0,29.78,NNW,337,0.0,0.0,62,0.00,,,0.00,VWS V13.01,2013-06-30 04:21:00,
2013-06-29 23:26:00,66.4,53.0,29.78,NNW,337,0.0,0.0,62,0.00,,,0.00,VWS V13.01,2013-06-30 04:26:00,
2013-06-29 23:31:00,66.2,52.8,29.75,NNW,337,0.0,0.0,62,0.00,,,0.00,VWS V13.01,2013-06-30 04:31:00,
2013-06-29 23:36:00,66.0,53.5,29.75,NNW,337,0.0,0.0,64,0.00,,,0.00,VWS V13.01,2013-06-30 04:36:00,
2013-06-29 23:41:00,65.8,53.7,29.75,NNW,337,0.0,0.0,65,0.00,,,0.00,VWS V13.01,2013-06-30 04:41:00,
2013-06-29 23:46:00,65.5,53.8,29.78,NNW,337,0.0,0.0,66,0.00,,,0.00,VWS V13.01,2013-06-30 04:46:00,
2013-06-29 23:51:00,65.1,53.5,29.78,NNW,337,0.0,0.0,66,0.00,,,0.00,VWS V13.01,2013-06-30 04:51:00,
2013-06-29 23:56:00,64.7,53.1,29.78,NNW,337,0.0,0.0,66,0.00,,,0.00,VWS V13.01,2013-06-30 04:56:00,